sensor_id;sensor_type;location;lat;lon;timestamp;temperature;humidity
14122;DHT22;7139;48.114;11.442;2023-03-13T00:00:23;6.70;99.90
14122;DHT22;7139;48.114;11.442;2023-03-13T00:02:50;6.70;99.90
14122;DHT22;7139;48.114;11.442;2023-03-13T00:05:16;6.60;99.90
14122;DHT22;7139;48.114;11.442;2023-03-13T00:07:44;6.60;99.90
14122;DHT22;7139;48.114;11.442;2023-03-13T00:10:11;6.60;99.90
14122;DHT22;7139;48.114;11.442;2023-03-13T00:12:38;6.50;99.90
14122;DHT22;7139;48.114;11.442;2023-03-13T00:15:06;6.50;99.90
14122;DHT22;7139;48.114;11.442;2023-03-13T00:17:33;6.50;99.90
14122;DHT22;7139;48.114;11.442;2023-03-13T00:20:00;6.50;99.90
14122;DHT22;7139;48.114;11.442;2023-03-13T00:22:27;6.40;99.90
14122;DHT22;7139;48.114;11.442;2023-03-13T00:24:55;6.40;99.90
14122;DHT22;7139;48.114;11.442;2023-03-13T00:27:23;6.40;99.90
14122;DHT22;7139;48.114;11.442;2023-03-13T00:29:50;6.30;99.90
14122;DHT22;7139;48.114;11.442;2023-03-13T00:32:16;6.30;99.90
14122;DHT22;7139;48.114;11.442;2023-03-13T00:34:43;6.20;99.90
14122;DHT22;7139;48.114;11.442;2023-03-13T00:37:10;6.30;99.90
14122;DHT22;7139;48.114;11.442;2023-03-13T00:39:36;6.20;99.90
14122;DHT22;7139;48.114;11.442;2023-03-13T00:42:05;6.20;99.90
14122;DHT22;7139;48.114;11.442;2023-03-13T00:44:32;6.10;99.90
14122;DHT22;7139;48.114;11.442;2023-03-13T00:46:59;6.10;99.90
14122;DHT22;7139;48.114;11.442;2023-03-13T00:49:25;6.10;99.90
14122;DHT22;7139;48.114;11.442;2023-03-13T00:51:52;6.10;99.90
14122;DHT22;7139;48.114;11.442;2023-03-13T00:54:19;6.00;99.90
14122;DHT22;7139;48.114;11.442;2023-03-13T00:56:46;6.00;99.90
14122;DHT22;7139;48.114;11.442;2023-03-13T00:59:14;6.00;99.90
14122;DHT22;7139;48.114;11.442;2023-03-13T01:01:41;5.90;99.90
14122;DHT22;7139;48.114;11.442;2023-03-13T01:04:10;5.80;99.90
14122;DHT22;7139;48.114;11.442;2023-03-13T01:06:38;5.70;99.90
14122;DHT22;7139;48.114;11.442;2023-03-13T01:09:08;5.70;99.90
14122;DHT22;7139;48.114;11.442;2023-03-13T01:11:36;5.60;99.90
14122;DHT22;7139;48.114;11.442;2023-03-13T01:14:05;5.60;99.90
14122;DHT22;7139;48.114;11.442;2023-03-13T01:16:35;5.60;99.90
14122;DHT22;7139;48.114;11.442;2023-03-13T01:19:04;5.50;99.90
14122;DHT22;7139;48.114;11.442;2023-03-13T01:21:31;5.50;99.90
14122;DHT22;7139;48.114;11.442;2023-03-13T01:23:58;5.50;99.90
14122;DHT22;7139;48.114;11.442;2023-03-13T01:26:25;5.40;99.90
14122;DHT22;7139;48.114;11.442;2023-03-13T01:28:53;5.40;99.90
14122;DHT22;7139;48.114;11.442;2023-03-13T01:31:21;5.30;99.90
14122;DHT22;7139;48.114;11.442;2023-03-13T01:33:52;5.30;99.90
14122;DHT22;7139;48.114;11.442;2023-03-13T01:36:20;5.20;99.90
14122;DHT22;7139;48.114;11.442;2023-03-13T01:38:47;5.20;99.90
14122;DHT22;7139;48.114;11.442;2023-03-13T01:41:15;5.20;99.90
14122;DHT22;7139;48.114;11.442;2023-03-13T01:43:43;5.10;99.90
14122;DHT22;7139;48.114;11.442;2023-03-13T01:46:13;5.10;99.90
14122;DHT22;7139;48.114;11.442;2023-03-13T01:48:44;5.00;99.90
14122;DHT22;7139;48.114;11.442;2023-03-13T01:51:17;5.00;99.90
14122;DHT22;7139;48.114;11.442;2023-03-13T01:53:49;4.90;99.90
14122;DHT22;7139;48.114;11.442;2023-03-13T01:56:19;4.90;99.90
14122;DHT22;7139;48.114;11.442;2023-03-13T01:58:50;4.90;99.90
14122;DHT22;7139;48.114;11.442;2023-03-13T02:01:19;4.90;99.90
14122;DHT22;7139;48.114;11.442;2023-03-13T02:03:47;4.80;99.90
14122;DHT22;7139;48.114;11.442;2023-03-13T02:06:17;4.80;99.90
14122;DHT22;7139;48.114;11.442;2023-03-13T02:08:47;4.80;99.90
14122;DHT22;7139;48.114;11.442;2023-03-13T02:11:24;4.80;99.90
14122;DHT22;7139;48.114;11.442;2023-03-13T02:13:53;4.80;99.90
14122;DHT22;7139;48.114;11.442;2023-03-13T02:16:21;4.70;99.90
14122;DHT22;7139;48.114;11.442;2023-03-13T02:18:49;4.70;99.90
14122;DHT22;7139;48.114;11.442;2023-03-13T02:21:24;4.70;99.90
14122;DHT22;7139;48.114;11.442;2023-03-13T02:23:58;4.70;99.90
14122;DHT22;7139;48.114;11.442;2023-03-13T02:26:29;4.70;99.90
14122;DHT22;7139;48.114;11.442;2023-03-13T02:28:56;4.70;99.90
14122;DHT22;7139;48.114;11.442;2023-03-13T02:31:23;4.70;99.90
14122;DHT22;7139;48.114;11.442;2023-03-13T02:33:51;4.70;99.90
14122;DHT22;7139;48.114;11.442;2023-03-13T02:36:19;4.60;99.90
14122;DHT22;7139;48.114;11.442;2023-03-13T02:38:50;4.60;99.90
14122;DHT22;7139;48.114;11.442;2023-03-13T02:41:20;4.60;99.90
14122;DHT22;7139;48.114;11.442;2023-03-13T02:43:49;4.60;99.90
14122;DHT22;7139;48.114;11.442;2023-03-13T02:46:17;4.70;99.90
14122;DHT22;7139;48.114;11.442;2023-03-13T02:48:47;4.70;99.90
14122;DHT22;7139;48.114;11.442;2023-03-13T02:51:19;4.60;99.90
14122;DHT22;7139;48.114;11.442;2023-03-13T02:53:49;4.60;99.90
14122;DHT22;7139;48.114;11.442;2023-03-13T02:56:18;4.70;99.90
14122;DHT22;7139;48.114;11.442;2023-03-13T02:58:45;4.60;99.90
14122;DHT22;7139;48.114;11.442;2023-03-13T03:01:13;4.60;99.90
14122;DHT22;7139;48.114;11.442;2023-03-13T03:03:39;4.60;99.90
14122;DHT22;7139;48.114;11.442;2023-03-13T03:06:06;4.60;99.90
14122;DHT22;7139;48.114;11.442;2023-03-13T03:08:34;4.60;99.90
14122;DHT22;7139;48.114;11.442;2023-03-13T03:11:01;4.60;99.90
14122;DHT22;7139;48.114;11.442;2023-03-13T03:13:28;4.70;99.90
14122;DHT22;7139;48.114;11.442;2023-03-13T03:15:54;4.70;99.90
14122;DHT22;7139;48.114;11.442;2023-03-13T03:18:22;4.70;99.90
14122;DHT22;7139;48.114;11.442;2023-03-13T03:20:49;4.70;99.90
14122;DHT22;7139;48.114;11.442;2023-03-13T03:23:16;4.80;99.90
14122;DHT22;7139;48.114;11.442;2023-03-13T03:25:43;4.80;99.90
14122;DHT22;7139;48.114;11.442;2023-03-13T03:28:10;4.80;99.90
14122;DHT22;7139;48.114;11.442;2023-03-13T03:30:36;4.90;99.90
14122;DHT22;7139;48.114;11.442;2023-03-13T03:33:03;4.90;99.90
14122;DHT22;7139;48.114;11.442;2023-03-13T03:35:31;4.90;99.90
14122;DHT22;7139;48.114;11.442;2023-03-13T03:38:02;4.90;99.90
14122;DHT22;7139;48.114;11.442;2023-03-13T03:40:29;4.90;99.90
14122;DHT22;7139;48.114;11.442;2023-03-13T03:42:56;4.90;99.90
14122;DHT22;7139;48.114;11.442;2023-03-13T03:45:23;5.00;99.90
14122;DHT22;7139;48.114;11.442;2023-03-13T03:47:50;5.00;99.90
14122;DHT22;7139;48.114;11.442;2023-03-13T03:50:17;5.00;99.90
14122;DHT22;7139;48.114;11.442;2023-03-13T03:52:45;5.00;99.90
14122;DHT22;7139;48.114;11.442;2023-03-13T03:55:11;5.10;99.90
14122;DHT22;7139;48.114;11.442;2023-03-13T03:57:38;5.10;99.90
14122;DHT22;7139;48.114;11.442;2023-03-13T04:00:06;5.10;99.90
14122;DHT22;7139;48.114;11.442;2023-03-13T04:02:35;5.10;99.90
14122;DHT22;7139;48.114;11.442;2023-03-13T04:05:02;5.10;99.90
14122;DHT22;7139;48.114;11.442;2023-03-13T04:07:29;5.10;99.90
14122;DHT22;7139;48.114;11.442;2023-03-13T04:09:57;5.10;99.90
14122;DHT22;7139;48.114;11.442;2023-03-13T04:12:24;5.10;99.90
14122;DHT22;7139;48.114;11.442;2023-03-13T04:14:51;5.10;99.90
14122;DHT22;7139;48.114;11.442;2023-03-13T04:17:18;5.10;99.90
14122;DHT22;7139;48.114;11.442;2023-03-13T04:19:44;5.20;99.90
14122;DHT22;7139;48.114;11.442;2023-03-13T04:22:11;5.20;99.90
14122;DHT22;7139;48.114;11.442;2023-03-13T04:24:38;5.20;99.90
14122;DHT22;7139;48.114;11.442;2023-03-13T04:27:06;5.20;99.90
14122;DHT22;7139;48.114;11.442;2023-03-13T04:29:33;5.20;99.90
14122;DHT22;7139;48.114;11.442;2023-03-13T04:32:00;5.20;99.90
14122;DHT22;7139;48.114;11.442;2023-03-13T04:34:27;5.20;99.90
14122;DHT22;7139;48.114;11.442;2023-03-13T04:36:53;5.20;99.90
14122;DHT22;7139;48.114;11.442;2023-03-13T04:39:20;5.20;99.90
14122;DHT22;7139;48.114;11.442;2023-03-13T04:41:50;5.20;99.90
14122;DHT22;7139;48.114;11.442;2023-03-13T04:44:18;5.20;99.90
14122;DHT22;7139;48.114;11.442;2023-03-13T04:46:45;5.20;99.90
14122;DHT22;7139;48.114;11.442;2023-03-13T04:49:13;5.20;99.90
14122;DHT22;7139;48.114;11.442;2023-03-13T04:51:40;5.20;99.90
14122;DHT22;7139;48.114;11.442;2023-03-13T04:54:06;5.20;99.90
14122;DHT22;7139;48.114;11.442;2023-03-13T04:56:33;5.30;99.90
14122;DHT22;7139;48.114;11.442;2023-03-13T04:59:00;5.30;99.90
14122;DHT22;7139;48.114;11.442;2023-03-13T05:01:29;5.30;99.90
14122;DHT22;7139;48.114;11.442;2023-03-13T05:03:56;5.40;99.90
14122;DHT22;7139;48.114;11.442;2023-03-13T05:06:22;5.40;99.90
14122;DHT22;7139;48.114;11.442;2023-03-13T05:08:49;5.40;99.90
14122;DHT22;7139;48.114;11.442;2023-03-13T05:11:16;5.40;99.90
14122;DHT22;7139;48.114;11.442;2023-03-13T05:13:43;5.40;99.90
14122;DHT22;7139;48.114;11.442;2023-03-13T05:16:09;5.40;99.90
14122;DHT22;7139;48.114;11.442;2023-03-13T05:18:37;5.40;99.90
14122;DHT22;7139;48.114;11.442;2023-03-13T05:21:04;5.40;99.90
14122;DHT22;7139;48.114;11.442;2023-03-13T05:23:31;5.40;99.90
14122;DHT22;7139;48.114;11.442;2023-03-13T05:25:58;5.50;99.90
14122;DHT22;7139;48.114;11.442;2023-03-13T05:28:26;5.50;99.90
14122;DHT22;7139;48.114;11.442;2023-03-13T05:30:52;5.50;99.90
14122;DHT22;7139;48.114;11.442;2023-03-13T05:33:19;5.50;99.90
14122;DHT22;7139;48.114;11.442;2023-03-13T05:35:47;5.50;99.90
14122;DHT22;7139;48.114;11.442;2023-03-13T05:38:15;5.60;99.90
14122;DHT22;7139;48.114;11.442;2023-03-13T05:40:41;5.60;99.90
14122;DHT22;7139;48.114;11.442;2023-03-13T05:43:08;5.60;99.90
14122;DHT22;7139;48.114;11.442;2023-03-13T05:45:35;5.70;99.90
14122;DHT22;7139;48.114;11.442;2023-03-13T05:48:01;5.80;99.90
14122;DHT22;7139;48.114;11.442;2023-03-13T05:50:28;5.90;99.90
14122;DHT22;7139;48.114;11.442;2023-03-13T05:52:56;5.90;99.90
14122;DHT22;7139;48.114;11.442;2023-03-13T05:55:23;6.00;99.90
14122;DHT22;7139;48.114;11.442;2023-03-13T05:57:50;6.00;99.90
14122;DHT22;7139;48.114;11.442;2023-03-13T06:00:17;6.00;99.90
14122;DHT22;7139;48.114;11.442;2023-03-13T06:02:44;6.10;99.90
14122;DHT22;7139;48.114;11.442;2023-03-13T06:05:11;6.20;99.90
14122;DHT22;7139;48.114;11.442;2023-03-13T06:07:38;6.30;99.90
14122;DHT22;7139;48.114;11.442;2023-03-13T06:10:06;6.30;99.90
14122;DHT22;7139;48.114;11.442;2023-03-13T06:12:33;6.40;99.90
14122;DHT22;7139;48.114;11.442;2023-03-13T06:15:00;6.40;99.90
14122;DHT22;7139;48.114;11.442;2023-03-13T06:17:27;6.50;99.90
14122;DHT22;7139;48.114;11.442;2023-03-13T06:19:54;6.50;99.90
14122;DHT22;7139;48.114;11.442;2023-03-13T06:22:20;6.60;99.90
14122;DHT22;7139;48.114;11.442;2023-03-13T06:24:47;6.60;99.90
14122;DHT22;7139;48.114;11.442;2023-03-13T06:27:15;6.70;99.90
14122;DHT22;7139;48.114;11.442;2023-03-13T06:29:42;6.80;99.90
14122;DHT22;7139;48.114;11.442;2023-03-13T06:32:09;6.80;99.90
14122;DHT22;7139;48.114;11.442;2023-03-13T06:34:36;6.90;99.90
14122;DHT22;7139;48.114;11.442;2023-03-13T06:37:03;7.00;99.90
14122;DHT22;7139;48.114;11.442;2023-03-13T06:39:29;7.10;99.90
14122;DHT22;7139;48.114;11.442;2023-03-13T06:41:56;7.10;99.90
14122;DHT22;7139;48.114;11.442;2023-03-13T06:44:24;7.10;99.90
14122;DHT22;7139;48.114;11.442;2023-03-13T06:46:51;7.20;99.90
14122;DHT22;7139;48.114;11.442;2023-03-13T06:49:18;7.30;99.90
14122;DHT22;7139;48.114;11.442;2023-03-13T06:51:45;7.30;99.90
14122;DHT22;7139;48.114;11.442;2023-03-13T06:54:12;7.30;99.90
14122;DHT22;7139;48.114;11.442;2023-03-13T06:56:39;7.40;99.90
14122;DHT22;7139;48.114;11.442;2023-03-13T06:59:05;7.40;99.90
14122;DHT22;7139;48.114;11.442;2023-03-13T07:01:33;7.50;99.90
14122;DHT22;7139;48.114;11.442;2023-03-13T07:04:00;7.50;99.90
14122;DHT22;7139;48.114;11.442;2023-03-13T07:06:27;7.50;99.90
14122;DHT22;7139;48.114;11.442;2023-03-13T07:08:54;7.50;99.90
14122;DHT22;7139;48.114;11.442;2023-03-13T07:11:20;7.50;99.90
14122;DHT22;7139;48.114;11.442;2023-03-13T07:13:47;7.60;99.90
14122;DHT22;7139;48.114;11.442;2023-03-13T07:16:14;7.60;99.90
14122;DHT22;7139;48.114;11.442;2023-03-13T07:18:42;7.60;99.90
14122;DHT22;7139;48.114;11.442;2023-03-13T07:21:10;7.70;99.90
14122;DHT22;7139;48.114;11.442;2023-03-13T07:23:37;7.80;99.90
14122;DHT22;7139;48.114;11.442;2023-03-13T07:26:06;7.90;99.90
14122;DHT22;7139;48.114;11.442;2023-03-13T07:28:33;7.90;99.90
14122;DHT22;7139;48.114;11.442;2023-03-13T07:31:04;8.00;99.90
14122;DHT22;7139;48.114;11.442;2023-03-13T07:33:31;8.00;99.90
14122;DHT22;7139;48.114;11.442;2023-03-13T07:35:59;8.10;99.90
14122;DHT22;7139;48.114;11.442;2023-03-13T07:38:26;8.10;99.90
14122;DHT22;7139;48.114;11.442;2023-03-13T07:40:54;8.20;99.90
14122;DHT22;7139;48.114;11.442;2023-03-13T07:43:22;8.20;99.80
14122;DHT22;7139;48.114;11.442;2023-03-13T07:45:51;8.20;99.90
14122;DHT22;7139;48.114;11.442;2023-03-13T07:48:18;8.30;99.90
14122;DHT22;7139;48.114;11.442;2023-03-13T07:50:45;8.30;99.90
14122;DHT22;7139;48.114;11.442;2023-03-13T07:53:13;8.40;99.80
14122;DHT22;7139;48.114;11.442;2023-03-13T07:55:51;8.50;99.50
14122;DHT22;7139;48.114;11.442;2023-03-13T07:58:18;8.50;99.70
14122;DHT22;7139;48.114;11.442;2023-03-13T08:00:44;8.60;99.70
14122;DHT22;7139;48.114;11.442;2023-03-13T08:03:11;8.70;99.00
14122;DHT22;7139;48.114;11.442;2023-03-13T08:05:38;8.80;99.10
14122;DHT22;7139;48.114;11.442;2023-03-13T08:08:05;8.80;98.90
14122;DHT22;7139;48.114;11.442;2023-03-13T08:10:33;8.90;98.90
14122;DHT22;7139;48.114;11.442;2023-03-13T08:13:00;9.00;99.20
14122;DHT22;7139;48.114;11.442;2023-03-13T08:15:27;9.10;98.90
14122;DHT22;7139;48.114;11.442;2023-03-13T08:17:53;9.10;99.00
14122;DHT22;7139;48.114;11.442;2023-03-13T08:20:20;9.20;98.80
14122;DHT22;7139;48.114;11.442;2023-03-13T08:22:47;9.30;99.10
14122;DHT22;7139;48.114;11.442;2023-03-13T08:25:15;9.30;99.60
14122;DHT22;7139;48.114;11.442;2023-03-13T08:27:43;9.30;99.90
14122;DHT22;7139;48.114;11.442;2023-03-13T08:30:11;9.40;99.90
14122;DHT22;7139;48.114;11.442;2023-03-13T08:32:38;9.40;99.90
14122;DHT22;7139;48.114;11.442;2023-03-13T08:35:05;9.40;99.90
14122;DHT22;7139;48.114;11.442;2023-03-13T08:37:32;9.40;99.90
14122;DHT22;7139;48.114;11.442;2023-03-13T08:39:59;9.40;99.90
14122;DHT22;7139;48.114;11.442;2023-03-13T08:42:26;9.40;99.90
14122;DHT22;7139;48.114;11.442;2023-03-13T08:44:54;9.40;99.90
14122;DHT22;7139;48.114;11.442;2023-03-13T08:47:21;9.50;99.90
14122;DHT22;7139;48.114;11.442;2023-03-13T08:49:47;9.60;99.90
14122;DHT22;7139;48.114;11.442;2023-03-13T08:52:14;9.70;99.90
14122;DHT22;7139;48.114;11.442;2023-03-13T08:54:41;9.80;99.90
14122;DHT22;7139;48.114;11.442;2023-03-13T08:57:07;9.80;99.90
14122;DHT22;7139;48.114;11.442;2023-03-13T08:59:34;9.90;99.90
14122;DHT22;7139;48.114;11.442;2023-03-13T09:02:02;10.10;99.90
14122;DHT22;7139;48.114;11.442;2023-03-13T09:04:29;10.30;99.90
14122;DHT22;7139;48.114;11.442;2023-03-13T09:06:56;10.60;99.90
14122;DHT22;7139;48.114;11.442;2023-03-13T09:09:23;10.80;99.90
14122;DHT22;7139;48.114;11.442;2023-03-13T09:11:50;11.10;99.90
14122;DHT22;7139;48.114;11.442;2023-03-13T09:14:16;11.30;99.90
14122;DHT22;7139;48.114;11.442;2023-03-13T09:16:43;11.40;99.70
14122;DHT22;7139;48.114;11.442;2023-03-13T09:19:12;11.40;98.60
14122;DHT22;7139;48.114;11.442;2023-03-13T09:21:39;11.50;98.80
14122;DHT22;7139;48.114;11.442;2023-03-13T09:24:07;11.50;99.00
14122;DHT22;7139;48.114;11.442;2023-03-13T09:26:34;11.80;98.10
14122;DHT22;7139;48.114;11.442;2023-03-13T09:29:01;12.00;98.60
14122;DHT22;7139;48.114;11.442;2023-03-13T09:31:29;12.40;99.40
14122;DHT22;7139;48.114;11.442;2023-03-13T09:33:56;12.80;97.60
14122;DHT22;7139;48.114;11.442;2023-03-13T09:36:25;13.10;98.00
14122;DHT22;7139;48.114;11.442;2023-03-13T09:38:53;13.20;97.00
14122;DHT22;7139;48.114;11.442;2023-03-13T09:41:25;13.40;96.10
14122;DHT22;7139;48.114;11.442;2023-03-13T09:43:57;13.40;94.70
14122;DHT22;7139;48.114;11.442;2023-03-13T09:46:34;13.60;95.20
14122;DHT22;7139;48.114;11.442;2023-03-13T09:49:04;13.90;95.20
14122;DHT22;7139;48.114;11.442;2023-03-13T09:51:35;14.10;94.40
14122;DHT22;7139;48.114;11.442;2023-03-13T09:54:06;14.30;93.60
14122;DHT22;7139;48.114;11.442;2023-03-13T09:56:39;14.60;91.30
14122;DHT22;7139;48.114;11.442;2023-03-13T09:59:17;14.80;90.20
14122;DHT22;7139;48.114;11.442;2023-03-13T10:01:46;15.00;89.40
14122;DHT22;7139;48.114;11.442;2023-03-13T10:04:26;15.00;88.50
14122;DHT22;7139;48.114;11.442;2023-03-13T10:06:55;15.10;89.60
14122;DHT22;7139;48.114;11.442;2023-03-13T10:09:26;15.10;88.20
14122;DHT22;7139;48.114;11.442;2023-03-13T10:11:59;15.20;87.50
14122;DHT22;7139;48.114;11.442;2023-03-13T10:14:32;15.40;88.50
14122;DHT22;7139;48.114;11.442;2023-03-13T10:17:08;15.60;88.40
14122;DHT22;7139;48.114;11.442;2023-03-13T10:19:38;15.70;87.20
14122;DHT22;7139;48.114;11.442;2023-03-13T10:22:12;15.70;85.60
14122;DHT22;7139;48.114;11.442;2023-03-13T10:24:44;15.60;85.60
14122;DHT22;7139;48.114;11.442;2023-03-13T10:27:14;15.60;85.70
14122;DHT22;7139;48.114;11.442;2023-03-13T10:29:41;15.80;85.40
14122;DHT22;7139;48.114;11.442;2023-03-13T10:32:10;15.90;84.90
14122;DHT22;7139;48.114;11.442;2023-03-13T10:34:47;16.00;84.50
14122;DHT22;7139;48.114;11.442;2023-03-13T10:37:20;16.00;85.30
14122;DHT22;7139;48.114;11.442;2023-03-13T10:39:47;16.00;85.80
14122;DHT22;7139;48.114;11.442;2023-03-13T10:42:20;16.00;86.20
14122;DHT22;7139;48.114;11.442;2023-03-13T10:44:47;16.00;85.50
14122;DHT22;7139;48.114;11.442;2023-03-13T10:47:14;16.00;87.30
14122;DHT22;7139;48.114;11.442;2023-03-13T10:49:47;16.10;87.30
14122;DHT22;7139;48.114;11.442;2023-03-13T10:52:34;16.10;86.10
14122;DHT22;7139;48.114;11.442;2023-03-13T10:55:03;16.20;86.40
14122;DHT22;7139;48.114;11.442;2023-03-13T10:57:30;16.30;86.20
14122;DHT22;7139;48.114;11.442;2023-03-13T10:59:58;16.40;84.40
14122;DHT22;7139;48.114;11.442;2023-03-13T11:02:28;16.50;84.80
14122;DHT22;7139;48.114;11.442;2023-03-13T11:04:58;16.50;84.30
14122;DHT22;7139;48.114;11.442;2023-03-13T11:07:29;16.50;84.50
14122;DHT22;7139;48.114;11.442;2023-03-13T11:10:01;16.70;85.30
14122;DHT22;7139;48.114;11.442;2023-03-13T11:12:32;16.90;84.00
14122;DHT22;7139;48.114;11.442;2023-03-13T11:15:00;16.90;84.80
14122;DHT22;7139;48.114;11.442;2023-03-13T11:17:35;17.20;84.10
14122;DHT22;7139;48.114;11.442;2023-03-13T11:20:16;17.40;84.20
14122;DHT22;7139;48.114;11.442;2023-03-13T11:23:10;17.60;84.20
14122;DHT22;7139;48.114;11.442;2023-03-13T11:25:45;17.80;83.10
14122;DHT22;7139;48.114;11.442;2023-03-13T11:28:22;17.80;84.10
14122;DHT22;7139;48.114;11.442;2023-03-13T11:31:08;17.90;84.40
14122;DHT22;7139;48.114;11.442;2023-03-13T11:33:42;18.00;84.50
14122;DHT22;7139;48.114;11.442;2023-03-13T11:36:19;18.20;85.20
14122;DHT22;7139;48.114;11.442;2023-03-13T11:38:52;18.30;84.80
14122;DHT22;7139;48.114;11.442;2023-03-13T11:41:30;18.40;84.90
14122;DHT22;7139;48.114;11.442;2023-03-13T11:44:08;18.50;85.40
14122;DHT22;7139;48.114;11.442;2023-03-13T11:46:44;18.40;85.40
14122;DHT22;7139;48.114;11.442;2023-03-13T11:49:38;18.50;86.10
14122;DHT22;7139;48.114;11.442;2023-03-13T11:52:18;18.60;85.10
14122;DHT22;7139;48.114;11.442;2023-03-13T11:55:02;18.50;85.00
14122;DHT22;7139;48.114;11.442;2023-03-13T11:57:41;18.60;84.50
14122;DHT22;7139;48.114;11.442;2023-03-13T12:00:21;18.70;83.90
14122;DHT22;7139;48.114;11.442;2023-03-13T12:02:54;18.70;83.80
14122;DHT22;7139;48.114;11.442;2023-03-13T12:05:22;18.70;83.50
14122;DHT22;7139;48.114;11.442;2023-03-13T12:07:55;18.80;84.40
14122;DHT22;7139;48.114;11.442;2023-03-13T12:10:28;18.80;82.50
14122;DHT22;7139;48.114;11.442;2023-03-13T12:13:02;18.80;83.20
14122;DHT22;7139;48.114;11.442;2023-03-13T12:15:34;18.80;83.10
14122;DHT22;7139;48.114;11.442;2023-03-13T12:18:05;18.70;82.40
14122;DHT22;7139;48.114;11.442;2023-03-13T12:20:40;18.60;82.20
14122;DHT22;7139;48.114;11.442;2023-03-13T12:23:16;18.40;83.20
14122;DHT22;7139;48.114;11.442;2023-03-13T12:25:49;18.40;83.40
14122;DHT22;7139;48.114;11.442;2023-03-13T12:28:27;18.40;83.50
14122;DHT22;7139;48.114;11.442;2023-03-13T12:31:09;18.30;83.20
14122;DHT22;7139;48.114;11.442;2023-03-13T12:33:40;18.30;83.90
14122;DHT22;7139;48.114;11.442;2023-03-13T12:36:12;18.40;83.70
14122;DHT22;7139;48.114;11.442;2023-03-13T12:38:41;18.40;83.30
14122;DHT22;7139;48.114;11.442;2023-03-13T12:41:18;18.50;84.10
14122;DHT22;7139;48.114;11.442;2023-03-13T12:43:48;18.70;83.10
14122;DHT22;7139;48.114;11.442;2023-03-13T12:46:29;18.80;83.20
14122;DHT22;7139;48.114;11.442;2023-03-13T12:49:29;18.90;83.00
14122;DHT22;7139;48.114;11.442;2023-03-13T12:55:02;19.10;82.10
14122;DHT22;7139;48.114;11.442;2023-03-13T13:00:34;19.20;82.70
14122;DHT22;7139;48.114;11.442;2023-03-13T13:03:08;19.30;82.20
14122;DHT22;7139;48.114;11.442;2023-03-13T13:05:36;19.30;82.90
14122;DHT22;7139;48.114;11.442;2023-03-13T13:08:03;19.40;82.50
14122;DHT22;7139;48.114;11.442;2023-03-13T13:10:30;19.50;81.90
14122;DHT22;7139;48.114;11.442;2023-03-13T13:13:17;19.60;82.40
14122;DHT22;7139;48.114;11.442;2023-03-13T13:15:45;19.70;81.40
14122;DHT22;7139;48.114;11.442;2023-03-13T13:18:21;19.60;80.50
14122;DHT22;7139;48.114;11.442;2023-03-13T13:21:19;19.50;81.70
14122;DHT22;7139;48.114;11.442;2023-03-13T13:23:48;19.50;81.40
14122;DHT22;7139;48.114;11.442;2023-03-13T13:26:48;19.40;81.50
14122;DHT22;7139;48.114;11.442;2023-03-13T13:32:44;19.30;81.40
14122;DHT22;7139;48.114;11.442;2023-03-13T13:35:29;19.10;81.20
14122;DHT22;7139;48.114;11.442;2023-03-13T13:38:21;19.00;81.90
14122;DHT22;7139;48.114;11.442;2023-03-13T13:40:58;19.00;82.00
14122;DHT22;7139;48.114;11.442;2023-03-13T13:43:35;18.90;81.80
14122;DHT22;7139;48.114;11.442;2023-03-13T13:46:04;18.90;82.80
14122;DHT22;7139;48.114;11.442;2023-03-13T13:48:40;18.90;82.60
14122;DHT22;7139;48.114;11.442;2023-03-13T13:51:23;18.90;82.60
14122;DHT22;7139;48.114;11.442;2023-03-13T13:54:00;18.80;83.20
14122;DHT22;7139;48.114;11.442;2023-03-13T13:56:34;18.90;83.80
14122;DHT22;7139;48.114;11.442;2023-03-13T13:59:05;18.90;83.30
14122;DHT22;7139;48.114;11.442;2023-03-13T14:01:40;18.90;83.40
14122;DHT22;7139;48.114;11.442;2023-03-13T14:04:14;18.90;83.50
14122;DHT22;7139;48.114;11.442;2023-03-13T14:06:44;19.00;83.40
14122;DHT22;7139;48.114;11.442;2023-03-13T14:09:19;18.90;82.80
14122;DHT22;7139;48.114;11.442;2023-03-13T14:11:48;18.90;82.50
14122;DHT22;7139;48.114;11.442;2023-03-13T14:14:17;18.90;82.40
14122;DHT22;7139;48.114;11.442;2023-03-13T14:16:45;19.00;82.40
14122;DHT22;7139;48.114;11.442;2023-03-13T14:19:23;19.00;82.40
14122;DHT22;7139;48.114;11.442;2023-03-13T14:21:57;19.10;82.40
14122;DHT22;7139;48.114;11.442;2023-03-13T14:24:24;19.10;81.70
14122;DHT22;7139;48.114;11.442;2023-03-13T14:26:50;19.10;82.50
14122;DHT22;7139;48.114;11.442;2023-03-13T14:29:18;19.10;82.30
14122;DHT22;7139;48.114;11.442;2023-03-13T14:31:52;19.10;82.30
14122;DHT22;7139;48.114;11.442;2023-03-13T14:34:20;19.10;81.80
14122;DHT22;7139;48.114;11.442;2023-03-13T14:36:48;19.10;82.10
14122;DHT22;7139;48.114;11.442;2023-03-13T14:39:18;19.20;81.00
14122;DHT22;7139;48.114;11.442;2023-03-13T14:41:46;19.20;80.50
14122;DHT22;7139;48.114;11.442;2023-03-13T14:44:19;19.20;80.10
14122;DHT22;7139;48.114;11.442;2023-03-13T14:46:47;19.20;80.60
14122;DHT22;7139;48.114;11.442;2023-03-13T14:49:17;19.30;81.90
14122;DHT22;7139;48.114;11.442;2023-03-13T14:51:58;19.30;82.00
14122;DHT22;7139;48.114;11.442;2023-03-13T14:54:28;19.30;80.80
14122;DHT22;7139;48.114;11.442;2023-03-13T14:57:13;19.30;80.30
14122;DHT22;7139;48.114;11.442;2023-03-13T14:59:41;19.30;79.80
14122;DHT22;7139;48.114;11.442;2023-03-13T15:02:18;19.30;80.20
14122;DHT22;7139;48.114;11.442;2023-03-13T15:04:51;19.30;82.10
14122;DHT22;7139;48.114;11.442;2023-03-13T15:07:19;19.40;80.70
14122;DHT22;7139;48.114;11.442;2023-03-13T15:09:47;19.40;81.70
14122;DHT22;7139;48.114;11.442;2023-03-13T15:12:16;19.30;81.10
14122;DHT22;7139;48.114;11.442;2023-03-13T15:14:44;19.30;80.50
14122;DHT22;7139;48.114;11.442;2023-03-13T15:17:14;19.30;81.60
14122;DHT22;7139;48.114;11.442;2023-03-13T15:19:42;19.10;81.30
14122;DHT22;7139;48.114;11.442;2023-03-13T15:22:13;19.10;81.40
14122;DHT22;7139;48.114;11.442;2023-03-13T15:24:42;19.00;82.60
14122;DHT22;7139;48.114;11.442;2023-03-13T15:27:17;18.90;82.90
14122;DHT22;7139;48.114;11.442;2023-03-13T15:29:44;18.80;83.20
14122;DHT22;7139;48.114;11.442;2023-03-13T15:32:18;18.70;83.20
14122;DHT22;7139;48.114;11.442;2023-03-13T15:34:47;18.70;84.10
14122;DHT22;7139;48.114;11.442;2023-03-13T15:37:14;18.60;84.20
14122;DHT22;7139;48.114;11.442;2023-03-13T15:39:42;18.50;84.10
14122;DHT22;7139;48.114;11.442;2023-03-13T15:42:09;18.60;85.00
14122;DHT22;7139;48.114;11.442;2023-03-13T15:44:36;18.60;85.30
14122;DHT22;7139;48.114;11.442;2023-03-13T15:47:03;18.50;84.70
14122;DHT22;7139;48.114;11.442;2023-03-13T15:49:30;18.50;84.50
14122;DHT22;7139;48.114;11.442;2023-03-13T15:51:56;18.50;84.10
14122;DHT22;7139;48.114;11.442;2023-03-13T15:54:23;18.40;84.40
14122;DHT22;7139;48.114;11.442;2023-03-13T15:56:52;18.40;84.70
14122;DHT22;7139;48.114;11.442;2023-03-13T15:59:19;18.40;84.30
14122;DHT22;7139;48.114;11.442;2023-03-13T16:01:46;18.40;83.90
14122;DHT22;7139;48.114;11.442;2023-03-13T16:04:14;18.60;83.90